Time;durP1;ratioP1;P1;durP2;ratioP2;P2;SDS_P1;SDS_P2;PMS_P1;PMS_P2;Temp;Humidity;BMP_temperature;BMP_pressure;BME280_temperature;BME280_humidity;BME280_pressure;Samples;Min_cycle;Max_cycle;Signal;HPM_P1;HPM_P2
2022/07/17 00:01:34;;;;;;;1.15;0.50;;;;;;;;;;4856721;29;20061;-71
2022/07/17 00:04:04;;;;;;;2.38;0.40;;;;;;;;;;4856709;29;20053;-70
2022/07/17 00:06:35;;;;;;;1.17;0.30;;;;;;;;;;4856411;29;20076;-69
2022/07/17 00:09:06;;;;;;;1.70;0.65;;;;;;;;;;4826574;29;20358;-70
2022/07/17 00:11:36;;;;;;;0.68;0.32;;;;;;;;;;4871539;29;20057;-70
2022/07/17 00:14:07;;;;;;;1.83;0.50;;;;;;;;;;4875361;29;20049;-71
2022/07/17 00:16:37;;;;;;;0.60;0.30;;;;;;;;;;4875257;29;20057;-71
2022/07/17 00:19:09;;;;;;;0.90;0.40;;;;;;;;;;4856376;29;20550;-70
2022/07/17 00:21:39;;;;;;;2.97;0.43;;;;;;;;;;4825810;29;20061;-71
2022/07/17 00:24:10;;;;;;;0.77;0.30;;;;;;;;;;4856555;29;20084;-71
2022/07/17 00:26:40;;;;;;;1.77;0.35;;;;;;;;;;4856544;29;20525;-71
2022/07/17 00:29:11;;;;;;;1.20;0.40;;;;;;;;;;4856534;29;20066;-70
2022/07/17 00:31:43;;;;;;;0.70;0.40;;;;;;;;;;4810136;29;20065;-69
2022/07/17 00:34:13;;;;;;;0.98;0.40;;;;;;;;;;4792829;29;20069;-71
2022/07/17 00:36:43;;;;;;;1.05;0.40;;;;;;;;;;4846403;29;20066;-70
2022/07/17 00:39:14;;;;;;;0.70;0.50;;;;;;;;;;4856385;29;20569;-70
2022/07/17 00:41:46;;;;;;;0.93;0.73;;;;;;;;;;4771411;29;20062;-71
2022/07/17 00:44:17;;;;;;;0.93;0.30;;;;;;;;;;4792261;29;20063;-70
2022/07/17 00:46:48;;;;;;;1.00;0.20;;;;;;;;;;4784305;29;20067;-70
2022/07/17 00:49:20;;;;;;;0.95;0.35;;;;;;;;;;4746669;29;20100;-70
2022/07/17 00:51:55;;;;;;;0.70;0.30;;;;;;;;;;4804613;29;20059;-70
2022/07/17 00:54:30;;;;;;;3.13;0.40;;;;;;;;;;4786801;29;20066;-70
2022/07/17 00:57:07;;;;;;;0.60;0.40;;;;;;;;;;4804557;29;20062;-69
2022/07/17 00:59:42;;;;;;;0.68;0.45;;;;;;;;;;4804956;29;20397;-71
2022/07/17 01:02:16;;;;;;;2.88;0.40;;;;;;;;;;4804753;29;20063;-73
2022/07/17 01:04:48;;;;;;;1.85;0.70;;;;;;;;;;4822666;29;20058;-72
2022/07/17 01:07:19;;;;;;;1.38;0.40;;;;;;;;;;4822505;29;20061;-73
2022/07/17 01:09:49;;;;;;;0.70;0.40;;;;;;;;;;4823754;29;20062;-71
2022/07/17 01:12:21;;;;;;;0.70;0.30;;;;;;;;;;4840728;29;20058;-74
2022/07/17 01:14:53;;;;;;;0.47;0.25;;;;;;;;;;4822361;29;20120;-72
2022/07/17 01:17:24;;;;;;;0.82;0.50;;;;;;;;;;4822283;29;20207;-70
2022/07/17 01:19:55;;;;;;;0.80;0.38;;;;;;;;;;4848065;29;20062;-71
2022/07/17 01:22:25;;;;;;;1.17;0.43;;;;;;;;;;4791937;29;20579;-70
2022/07/17 01:24:55;;;;;;;2.38;0.30;;;;;;;;;;4804028;29;20054;-70
2022/07/17 01:27:25;;;;;;;0.55;0.13;;;;;;;;;;4803854;29;20058;-70
2022/07/17 01:29:57;;;;;;;0.90;0.20;;;;;;;;;;4791612;29;20063;-70
2022/07/17 01:32:38;;;;;;;0.43;0.20;;;;;;;;;;4786170;29;20060;-69
2022/07/17 01:35:12;;;;;;;0.40;0.20;;;;;;;;;;4786376;29;20067;-69
2022/07/17 01:37:43;;;;;;;0.30;0.20;;;;;;;;;;4783767;29;20055;-69
2022/07/17 01:40:15;;;;;;;0.43;0.28;;;;;;;;;;4753364;30;20482;-69
2022/07/17 01:42:48;;;;;;;0.30;0.20;;;;;;;;;;4785859;29;20568;-68
2022/07/17 01:45:19;;;;;;;0.57;0.28;;;;;;;;;;4785967;29;20170;-67
2022/07/17 01:47:50;;;;;;;0.38;0.20;;;;;;;;;;4787493;29;20082;-69
2022/07/17 01:50:20;;;;;;;0.20;0.10;;;;;;;;;;4822012;29;20059;-69
2022/07/17 01:52:51;;;;;;;0.13;0.13;;;;;;;;;;4821873;29;20066;-69
2022/07/17 01:55:22;;;;;;;1.30;0.20;;;;;;;;;;4826414;29;20514;-70
2022/07/17 01:57:52;;;;;;;0.20;0.20;;;;;;;;;;4797974;29;20454;-69
2022/07/17 02:00:25;;;;;;;0.22;0.20;;;;;;;;;;4863899;29;20068;-69
2022/07/17 02:02:55;;;;;;;0.38;0.17;;;;;;;;;;4809294;29;20053;-68
2022/07/17 02:05:26;;;;;;;0.28;0.20;;;;;;;;;;4825147;29;20054;-69
2022/07/17 02:07:56;;;;;;;2.75;0.35;;;;;;;;;;4839928;29;20068;-69
2022/07/17 02:10:26;;;;;;;0.20;0.20;;;;;;;;;;4833965;29;20078;-69
2022/07/17 02:12:58;;;;;;;0.57;0.30;;;;;;;;;;4821601;29;20062;-69
2022/07/17 02:15:29;;;;;;;0.95;0.20;;;;;;;;;;4821327;29;20069;-69
2022/07/17 02:17:59;;;;;;;0.50;0.22;;;;;;;;;;4791288;29;20062;-68
2022/07/17 02:20:29;;;;;;;0.30;0.20;;;;;;;;;;4821449;29;20085;-68
2022/07/17 02:22:59;;;;;;;0.43;0.22;;;;;;;;;;4821490;29;20065;-69
2022/07/17 02:25:29;;;;;;;1.63;0.40;;;;;;;;;;4821390;29;20058;-69
2022/07/17 02:28:00;;;;;;;0.70;0.32;;;;;;;;;;4821150;29;20065;-68
2022/07/17 02:30:30;;;;;;;0.95;0.30;;;;;;;;;;4821320;29;20051;-69
2022/07/17 02:33:00;;;;;;;0.70;0.15;;;;;;;;;;4820909;29;20062;-70
2022/07/17 02:35:30;;;;;;;0.85;0.30;;;;;;;;;;4821212;29;20405;-69
2022/07/17 02:38:01;;;;;;;0.30;0.10;;;;;;;;;;4821181;29;20059;-70
2022/07/17 02:40:33;;;;;;;0.50;0.17;;;;;;;;;;4818094;29;20538;-70
2022/07/17 02:43:03;;;;;;;0.30;0.20;;;;;;;;;;4805598;29;20058;-69
2022/07/17 02:45:33;;;;;;;0.25;0.22;;;;;;;;;;4821192;29;20548;-68
2022/07/17 02:48:04;;;;;;;0.57;0.22;;;;;;;;;;4802464;29;20055;-68
2022/07/17 02:50:35;;;;;;;0.20;0.10;;;;;;;;;;4802793;29;20074;-69
2022/07/17 02:53:05;;;;;;;0.60;0.28;;;;;;;;;;4792942;29;20062;-68
2022/07/17 02:55:35;;;;;;;0.20;0.20;;;;;;;;;;4802504;29;20050;-69
2022/07/17 02:58:05;;;;;;;0.55;0.20;;;;;;;;;;4787428;29;20066;-69
2022/07/17 03:00:35;;;;;;;0.45;0.20;;;;;;;;;;4778843;29;20071;-69
2022/07/17 03:03:06;;;;;;;0.22;0.20;;;;;;;;;;4784549;29;20055;-70
2022/07/17 03:05:39;;;;;;;0.40;0.30;;;;;;;;;;4820424;29;20051;-70
2022/07/17 03:08:09;;;;;;;0.30;0.20;;;;;;;;;;4820726;29;20059;-69
2022/07/17 03:10:39;;;;;;;0.17;0.10;;;;;;;;;;4826887;29;20108;-69
2022/07/17 03:13:10;;;;;;;0.10;0.10;;;;;;;;;;4820866;29;20073;-71
2022/07/17 03:15:41;;;;;;;0.95;0.22;;;;;;;;;;4770213;30;20416;-70
2022/07/17 03:18:11;;;;;;;0.40;0.20;;;;;;;;;;4784560;29;20536;-70
2022/07/17 03:20:41;;;;;;;0.40;0.15;;;;;;;;;;4802135;29;20068;-70
2022/07/17 03:23:11;;;;;;;0.20;0.10;;;;;;;;;;4802325;29;20061;-70
2022/07/17 03:25:42;;;;;;;0.20;0.10;;;;;;;;;;4795974;29;20058;-70
2022/07/17 03:28:13;;;;;;;0.93;0.20;;;;;;;;;;4805182;29;20062;-68
2022/07/17 03:30:43;;;;;;;0.52;0.20;;;;;;;;;;4820776;29;20196;-69
2022/07/17 03:33:14;;;;;;;0.45;0.10;;;;;;;;;;4829414;29;20061;-69
2022/07/17 03:35:44;;;;;;;0.60;0.30;;;;;;;;;;4838482;29;20065;-68
2022/07/17 03:38:15;;;;;;;0.45;0.20;;;;;;;;;;4838572;29;20071;-70
2022/07/17 03:40:45;;;;;;;1.65;0.20;;;;;;;;;;4838317;29;20072;-69
2022/07/17 03:43:16;;;;;;;0.20;0.20;;;;;;;;;;4838180;29;20058;-70
2022/07/17 03:45:46;;;;;;;0.40;0.10;;;;;;;;;;4807962;29;20058;-69
2022/07/17 03:48:17;;;;;;;0.30;0.13;;;;;;;;;;4829579;29;20059;-70
2022/07/17 03:50:48;;;;;;;0.73;0.73;;;;;;;;;;4836818;29;20069;-70
2022/07/17 03:53:18;;;;;;;1.08;0.10;;;;;;;;;;4838437;29;20139;-69
2022/07/17 03:55:48;;;;;;;1.70;0.10;;;;;;;;;;4823528;29;20065;-70
2022/07/17 03:58:18;;;;;;;2.58;0.95;;;;;;;;;;4847249;29;20460;-70
2022/07/17 04:00:48;;;;;;;0.60;0.20;;;;;;;;;;4807605;29;20499;-71
2022/07/17 04:03:19;;;;;;;0.20;0.20;;;;;;;;;;4823364;29;20062;-69
2022/07/17 04:05:49;;;;;;;0.10;0.10;;;;;;;;;;4838096;29;20636;-69
2022/07/17 04:08:20;;;;;;;0.50;0.20;;;;;;;;;;4838320;29;20072;-69
2022/07/17 04:10:50;;;;;;;0.30;0.10;;;;;;;;;;4838335;29;20078;-69
2022/07/17 04:13:21;;;;;;;0.10;0.10;;;;;;;;;;4856384;29;20062;-69
2022/07/17 04:15:52;;;;;;;0.35;0.20;;;;;;;;;;4856608;29;20062;-71
2022/07/17 04:18:28;;;;;;;0.40;0.10;;;;;;;;;;4856390;29;20057;-69
2022/07/17 04:21:01;;;;;;;0.32;0.20;;;;;;;;;;4838016;29;20064;-71
2022/07/17 04:23:32;;;;;;;0.20;0.17;;;;;;;;;;4841796;29;20054;-70
2022/07/17 04:26:06;;;;;;;0.30;0.20;;;;;;;;;;4823187;29;20062;-70
2022/07/17 04:28:40;;;;;;;0.20;0.10;;;;;;;;;;4823334;29;20136;-70
2022/07/17 04:31:10;;;;;;;0.25;0.20;;;;;;;;;;4774791;29;20054;-70
2022/07/17 04:33:40;;;;;;;0.93;0.30;;;;;;;;;;4772620;29;20066;-69
2022/07/17 04:36:10;;;;;;;0.20;0.20;;;;;;;;;;4768911;30;20063;-70
2022/07/17 04:38:41;;;;;;;1.10;0.10;;;;;;;;;;4758668;30;20060;-70
2022/07/17 04:41:11;;;;;;;0.32;0.20;;;;;;;;;;4721888;30;20068;-70
2022/07/17 04:43:41;;;;;;;0.57;0.40;;;;;;;;;;4722096;30;20165;-70
2022/07/17 04:46:13;;;;;;;0.28;0.13;;;;;;;;;;4751258;30;20118;-69
2022/07/17 04:48:45;;;;;;;0.85;0.30;;;;;;;;;;4751378;30;20068;-70
2022/07/17 04:51:20;;;;;;;0.10;0.10;;;;;;;;;;4740629;30;20067;-70
2022/07/17 04:53:53;;;;;;;0.52;0.43;;;;;;;;;;4751290;30;20056;-70
2022/07/17 04:56:23;;;;;;;0.43;0.20;;;;;;;;;;4751160;30;20071;-70
2022/07/17 04:59:23;;;;;;;0.30;0.10;;;;;;;;;;4761938;30;20463;-70
2022/07/17 05:02:30;;;;;;;0.60;0.20;;;;;;;;;;4743482;30;20060;-69
2022/07/17 05:05:05;;;;;;;0.30;0.10;;;;;;;;;;4733640;30;20057;-70
2022/07/17 05:07:35;;;;;;;0.40;0.30;;;;;;;;;;4751146;30;20060;-69
2022/07/17 05:10:08;;;;;;;1.52;0.28;;;;;;;;;;4771818;29;20070;-69
2022/07/17 05:12:39;;;;;;;0.55;0.10;;;;;;;;;;4822527;29;20054;-70
2022/07/17 05:15:09;;;;;;;0.60;0.20;;;;;;;;;;4822501;29;20439;-70
2022/07/17 05:17:39;;;;;;;0.32;0.13;;;;;;;;;;4822608;29;20070;-70
2022/07/17 05:20:11;;;;;;;2.50;0.28;;;;;;;;;;4822651;29;20670;-70
2022/07/17 05:22:41;;;;;;;0.35;0.30;;;;;;;;;;4808183;29;20054;-70
2022/07/17 05:25:12;;;;;;;0.40;0.20;;;;;;;;;;4822626;29;20061;-70
2022/07/17 05:27:42;;;;;;;0.17;0.10;;;;;;;;;;4807827;29;20554;-69
2022/07/17 05:30:12;;;;;;;0.25;0.10;;;;;;;;;;4792182;29;20062;-69
2022/07/17 05:32:43;;;;;;;0.30;0.10;;;;;;;;;;4822220;29;20050;-71
2022/07/17 05:35:13;;;;;;;0.40;0.20;;;;;;;;;;4821894;29;20062;-70
2022/07/17 05:37:43;;;;;;;1.92;0.10;;;;;;;;;;4822462;29;20620;-70
2022/07/17 05:40:14;;;;;;;0.35;0.15;;;;;;;;;;4822182;29;20053;-70
2022/07/17 05:42:44;;;;;;;0.85;0.30;;;;;;;;;;4762686;29;20073;-70
2022/07/17 05:45:15;;;;;;;0.32;0.22;;;;;;;;;;4822240;29;20062;-70
2022/07/17 05:47:45;;;;;;;0.65;0.20;;;;;;;;;;4822122;29;20063;-70
2022/07/17 05:50:15;;;;;;;0.40;0.15;;;;;;;;;;4856132;29;20163;-70
2022/07/17 05:52:45;;;;;;;0.50;0.20;;;;;;;;;;4858640;29;20422;-70
2022/07/17 05:55:16;;;;;;;0.57;0.30;;;;;;;;;;4858591;29;20061;-69
2022/07/17 05:57:46;;;;;;;0.50;0.20;;;;;;;;;;4858759;29;20057;-70
2022/07/17 06:00:18;;;;;;;0.63;0.63;;;;;;;;;;4858136;29;20058;-70
2022/07/17 06:02:48;;;;;;;2.08;0.20;;;;;;;;;;4858802;29;20057;-71
2022/07/17 06:05:18;;;;;;;0.30;0.10;;;;;;;;;;4858487;29;20567;-70
2022/07/17 06:07:49;;;;;;;1.08;0.20;;;;;;;;;;4858811;29;20069;-70
2022/07/17 06:10:19;;;;;;;0.68;0.22;;;;;;;;;;4858423;29;20061;-71
2022/07/17 06:12:49;;;;;;;0.82;0.30;;;;;;;;;;4858536;29;20061;-70
2022/07/17 06:15:21;;;;;;;0.38;0.22;;;;;;;;;;4828591;29;20062;-71
2022/07/17 06:17:52;;;;;;;0.30;0.30;;;;;;;;;;4858525;29;20058;-71
2022/07/17 06:20:22;;;;;;;0.82;0.30;;;;;;;;;;4806623;29;20058;-70
2022/07/17 06:22:52;;;;;;;0.85;0.30;;;;;;;;;;4821392;29;20492;-70
2022/07/17 06:25:23;;;;;;;0.85;0.30;;;;;;;;;;4821338;29;20574;-70
2022/07/17 06:27:54;;;;;;;1.75;0.20;;;;;;;;;;4821612;29;20066;-70
2022/07/17 06:30:25;;;;;;;0.75;0.30;;;;;;;;;;4821320;29;20057;-70
2022/07/17 06:32:55;;;;;;;0.75;0.40;;;;;;;;;;4806656;29;20069;-70
2022/07/17 06:35:25;;;;;;;0.70;0.30;;;;;;;;;;4806408;29;20054;-69
2022/07/17 06:37:56;;;;;;;0.70;0.30;;;;;;;;;;4802963;29;20051;-70
2022/07/17 06:40:26;;;;;;;1.85;0.40;;;;;;;;;;4788527;29;20269;-69
2022/07/17 06:42:56;;;;;;;0.52;0.50;;;;;;;;;;4817689;29;20058;-71
2022/07/17 06:45:26;;;;;;;0.70;0.30;;;;;;;;;;4802937;29;20496;-70
2022/07/17 06:47:57;;;;;;;0.38;0.10;;;;;;;;;;4821037;29;20102;-70
2022/07/17 06:50:28;;;;;;;3.05;0.40;;;;;;;;;;4791417;29;20062;-70
2022/07/17 06:52:58;;;;;;;1.65;0.20;;;;;;;;;;4806043;29;20500;-70
2022/07/17 06:55:28;;;;;;;0.98;0.30;;;;;;;;;;4805883;29;20061;-70
2022/07/17 06:57:59;;;;;;;0.57;0.20;;;;;;;;;;4820381;29;20069;-70
2022/07/17 07:00:30;;;;;;;3.35;0.20;;;;;;;;;;4808887;29;20053;-69
2022/07/17 07:03:00;;;;;;;3.53;0.30;;;;;;;;;;4839364;29;20070;-70
2022/07/17 07:05:30;;;;;;;0.70;0.40;;;;;;;;;;4839367;29;20073;-71
2022/07/17 07:08:01;;;;;;;0.82;0.30;;;;;;;;;;4839115;29;20057;-69
2022/07/17 07:10:32;;;;;;;0.35;0.17;;;;;;;;;;4845582;29;20068;-70
2022/07/17 07:13:02;;;;;;;1.63;0.20;;;;;;;;;;4826646;29;20057;-70
2022/07/17 07:15:32;;;;;;;0.90;0.57;;;;;;;;;;4844706;29;20535;-70
2022/07/17 07:18:02;;;;;;;0.68;0.30;;;;;;;;;;4848017;29;20061;-70
2022/07/17 07:20:33;;;;;;;0.55;0.22;;;;;;;;;;4894761;29;20541;-69
2022/07/17 07:23:03;;;;;;;0.63;0.20;;;;;;;;;;4847591;29;20052;-69
2022/07/17 07:25:53;;;;;;;2.40;0.20;;;;;;;;;;4894339;29;20538;-70
2022/07/17 07:28:23;;;;;;;0.70;0.20;;;;;;;;;;4894368;29;20061;-69
2022/07/17 07:30:54;;;;;;;0.52;0.25;;;;;;;;;;4894205;29;20061;-69
2022/07/17 07:33:24;;;;;;;0.68;0.20;;;;;;;;;;4894545;29;20555;-70
2022/07/17 07:35:55;;;;;;;1.33;0.57;;;;;;;;;;4870887;29;20158;-70
2022/07/17 07:38:25;;;;;;;0.10;0.10;;;;;;;;;;4826611;29;20064;-69
2022/07/17 07:40:56;;;;;;;0.32;0.20;;;;;;;;;;4811174;29;20057;-69
2022/07/17 07:43:26;;;;;;;0.45;0.28;;;;;;;;;;4856669;29;20049;-70
2022/07/17 07:45:57;;;;;;;1.33;0.30;;;;;;;;;;4856979;29;20081;-70
2022/07/17 07:48:28;;;;;;;0.70;0.20;;;;;;;;;;4857149;29;20124;-70
2022/07/17 07:50:58;;;;;;;0.32;0.20;;;;;;;;;;4857051;29;20476;-71
2022/07/17 07:53:29;;;;;;;0.30;0.20;;;;;;;;;;4856816;29;20066;-70
2022/07/17 07:55:59;;;;;;;0.70;0.30;;;;;;;;;;4856691;29;20056;-69
2022/07/17 07:58:29;;;;;;;0.38;0.35;;;;;;;;;;4856626;29;20060;-69
2022/07/17 08:01:00;;;;;;;1.05;0.20;;;;;;;;;;4880013;29;20060;-69
2022/07/17 08:03:30;;;;;;;0.50;0.20;;;;;;;;;;4893829;29;20060;-69
2022/07/17 08:06:01;;;;;;;0.43;0.20;;;;;;;;;;4893994;29;20049;-68
2022/07/17 08:08:31;;;;;;;0.93;0.32;;;;;;;;;;4878550;29;20076;-69
2022/07/17 08:11:07;;;;;;;0.52;0.30;;;;;;;;;;4862640;29;20053;-68
2022/07/17 08:13:38;;;;;;;0.60;0.20;;;;;;;;;;4891940;29;20049;-69
2022/07/17 08:16:09;;;;;;;0.57;0.20;;;;;;;;;;4877419;29;20048;-70
2022/07/17 08:18:39;;;;;;;0.73;0.28;;;;;;;;;;4890824;29;20053;-69
2022/07/17 08:21:10;;;;;;;0.60;0.28;;;;;;;;;;4845099;29;20545;-69
2022/07/17 08:23:51;;;;;;;2.75;0.40;;;;;;;;;;4875063;29;20056;-70
2022/07/17 08:26:23;;;;;;;0.50;0.30;;;;;;;;;;4859548;29;20064;-68
2022/07/17 08:28:53;;;;;;;1.95;0.43;;;;;;;;;;4875122;29;20049;-68
2022/07/17 08:31:25;;;;;;;1.30;0.40;;;;;;;;;;4829329;29;20057;-69
2022/07/17 08:33:55;;;;;;;0.63;0.20;;;;;;;;;;4874554;29;20053;-68
2022/07/17 08:36:26;;;;;;;0.85;0.32;;;;;;;;;;4875200;29;20093;-70
2022/07/17 08:38:57;;;;;;;2.22;0.25;;;;;;;;;;4859440;29;20057;-69
2022/07/17 08:41:29;;;;;;;1.63;0.55;;;;;;;;;;4875083;29;20101;-70
2022/07/17 08:43:59;;;;;;;0.98;0.30;;;;;;;;;;4828896;29;20509;-69
2022/07/17 08:46:30;;;;;;;0.75;0.20;;;;;;;;;;4874973;29;20052;-69
2022/07/17 08:49:03;;;;;;;0.43;0.22;;;;;;;;;;4814112;29;20060;-68
2022/07/17 08:51:34;;;;;;;0.30;0.20;;;;;;;;;;4874821;29;20681;-69
2022/07/17 08:54:09;;;;;;;1.13;0.52;;;;;;;;;;4874856;29;20395;-69
2022/07/17 08:56:40;;;;;;;1.30;0.40;;;;;;;;;;4874773;29;20056;-67
2022/07/17 08:59:11;;;;;;;1.48;0.35;;;;;;;;;;4874878;29;20060;-69
2022/07/17 09:01:41;;;;;;;0.52;0.40;;;;;;;;;;4874601;29;20049;-69
2022/07/17 09:04:11;;;;;;;0.93;0.32;;;;;;;;;;4829188;29;20088;-69
2022/07/17 09:06:42;;;;;;;0.90;0.20;;;;;;;;;;4876047;29;20068;-69
2022/07/17 09:09:14;;;;;;;1.25;0.40;;;;;;;;;;4877146;29;20049;-68
2022/07/17 09:11:45;;;;;;;1.50;0.40;;;;;;;;;;4859059;29;20054;-69
2022/07/17 09:14:17;;;;;;;0.70;0.28;;;;;;;;;;4859707;29;20062;-68
2022/07/17 09:16:54;;;;;;;1.25;0.40;;;;;;;;;;4874857;29;20049;-68
2022/07/17 09:19:30;;;;;;;0.40;0.22;;;;;;;;;;4859720;29;20062;-69
2022/07/17 09:22:18;;;;;;;1.23;0.45;;;;;;;;;;4859611;29;20529;-68
2022/07/17 09:24:52;;;;;;;0.30;0.20;;;;;;;;;;4859667;29;20053;-68
2022/07/17 09:27:25;;;;;;;1.05;0.30;;;;;;;;;;4877508;29;20055;-70
2022/07/17 09:30:06;;;;;;;0.85;0.45;;;;;;;;;;4878142;29;20065;-70
2022/07/17 09:32:41;;;;;;;0.65;0.30;;;;;;;;;;4843919;29;20049;-69
2022/07/17 09:35:12;;;;;;;0.70;0.30;;;;;;;;;;4822310;29;20586;-69
2022/07/17 09:37:43;;;;;;;0.77;0.43;;;;;;;;;;4822429;29;20512;-68
2022/07/17 09:41:09;;;;;;;2.42;0.40;;;;;;;;;;4794612;29;20062;-70
2022/07/17 09:43:05;;;;;;;0.57;0.20;;;;;;;;;;4822365;29;20066;-69
2022/07/17 09:45:36;;;;;;;0.40;0.30;;;;;;;;;;4756212;29;20059;-69
2022/07/17 09:48:09;;;;;;;0.38;0.20;;;;;;;;;;4785925;29;20567;-68
2022/07/17 09:50:40;;;;;;;0.43;0.30;;;;;;;;;;4785747;29;20062;-68
2022/07/17 09:53:11;;;;;;;0.70;0.30;;;;;;;;;;4786070;29;20525;-69
2022/07/17 09:55:44;;;;;;;0.55;0.47;;;;;;;;;;4768015;30;20055;-69
2022/07/17 09:58:20;;;;;;;;;;;;;;;;;;4768539;30;20068;-68
2022/07/17 10:00:51;;;;;;;1.30;0.38;;;;;;;;;;4767864;30;19926;-69
2022/07/17 10:03:21;;;;;;;2.10;0.50;;;;;;;;;;4729333;30;20516;-69
2022/07/17 10:05:52;;;;;;;2.15;0.50;;;;;;;;;;4741340;30;20060;-68
2022/07/17 10:08:23;;;;;;;0.65;0.30;;;;;;;;;;4750205;30;20068;-69
2022/07/17 10:10:53;;;;;;;0.70;0.30;;;;;;;;;;4749963;30;20068;-69
2022/07/17 10:13:24;;;;;;;0.95;0.57;;;;;;;;;;4763059;30;20436;-69
2022/07/17 10:15:55;;;;;;;1.08;0.40;;;;;;;;;;4753233;30;20062;-71
2022/07/17 10:18:41;;;;;;;0.30;0.20;;;;;;;;;;4767893;30;20064;-69
2022/07/17 10:21:18;;;;;;;0.73;0.20;;;;;;;;;;4767243;30;20086;-69
2022/07/17 10:23:54;;;;;;;0.35;0.20;;;;;;;;;;4781335;30;20059;-69
2022/07/17 10:26:44;;;;;;;0.60;0.35;;;;;;;;;;4799192;29;20528;-69
2022/07/17 10:29:46;;;;;;;0.73;0.43;;;;;;;;;;4773415;29;20051;-68
2022/07/17 10:32:20;;;;;;;1.00;0.60;;;;;;;;;;4755425;30;20531;-69
2022/07/17 10:35:02;;;;;;;0.88;0.20;;;;;;;;;;4770383;30;20062;-69
2022/07/17 10:37:40;;;;;;;2.17;0.30;;;;;;;;;;4785264;30;20587;-68
2022/07/17 10:40:24;;;;;;;0.90;0.45;;;;;;;;;;4788941;29;20062;-69
2022/07/17 10:43:04;;;;;;;1.10;0.40;;;;;;;;;;4803243;29;20089;-68
2022/07/17 10:45:42;;;;;;;0.85;0.40;;;;;;;;;;4803261;29;20062;-70
2022/07/17 10:48:22;;;;;;;1.33;0.40;;;;;;;;;;4803087;29;20062;-69
2022/07/17 10:50:55;;;;;;;0.80;0.40;;;;;;;;;;4803241;29;20390;-69
2022/07/17 10:53:30;;;;;;;1.48;0.40;;;;;;;;;;4803078;29;20074;-69
2022/07/17 10:56:06;;;;;;;4.20;0.50;;;;;;;;;;4802952;29;20066;-69
2022/07/17 10:58:39;;;;;;;1.15;0.30;;;;;;;;;;4803288;29;20071;-69
2022/07/17 11:01:15;;;;;;;2.22;0.63;;;;;;;;;;4803365;29;20073;-69
2022/07/17 11:03:50;;;;;;;1.42;0.60;;;;;;;;;;4814522;29;20419;-69
2022/07/17 11:06:24;;;;;;;1.13;0.47;;;;;;;;;;4821029;29;20443;-69
2022/07/17 11:09:00;;;;;;;1.17;0.47;;;;;;;;;;4842885;29;20068;-69
2022/07/17 11:11:51;;;;;;;2.17;0.70;;;;;;;;;;4888174;29;20621;-69
2022/07/17 11:14:26;;;;;;;1.70;0.50;;;;;;;;;;4896089;29;20043;-68
2022/07/17 11:16:58;;;;;;;1.05;0.47;;;;;;;;;;4879157;29;20049;-68
2022/07/17 11:19:38;;;;;;;0.30;0.20;;;;;;;;;;4896966;29;20044;-69
2022/07/17 11:22:11;;;;;;;0.82;0.32;;;;;;;;;;4875675;29;20072;-68
2022/07/17 11:24:49;;;;;;;1.98;0.30;;;;;;;;;;4876231;29;20064;-68
2022/07/17 11:27:22;;;;;;;1.27;0.63;;;;;;;;;;4875725;29;20654;-68
2022/07/17 11:29:57;;;;;;;6.40;3.17;;;;;;;;;;4875706;29;20053;-68
2022/07/17 11:32:46;;;;;;;1.30;0.70;;;;;;;;;;4874873;29;20049;-68
2022/07/17 11:35:20;;;;;;;2.50;1.02;;;;;;;;;;4875687;29;20505;-68
2022/07/17 11:38:10;;;;;;;1.52;0.50;;;;;;;;;;4888580;29;20576;-71
2022/07/17 11:40:49;;;;;;;1.52;0.70;;;;;;;;;;4890515;29;20076;-68
2022/07/17 11:43:19;;;;;;;1.30;0.90;;;;;;;;;;4875576;29;20067;-67
2022/07/17 11:45:50;;;;;;;0.85;0.40;;;;;;;;;;4875646;29;20424;-68
2022/07/17 11:48:20;;;;;;;1.13;0.80;;;;;;;;;;4829531;29;20061;-68
2022/07/17 11:50:55;;;;;;;1.85;0.68;;;;;;;;;;4860464;29;20072;-68
2022/07/17 11:53:37;;;;;;;3.10;1.00;;;;;;;;;;4860339;29;20065;-68
2022/07/17 11:56:08;;;;;;;1.80;0.85;;;;;;;;;;4860057;29;20072;-69
2022/07/17 11:58:46;;;;;;;2.25;0.55;;;;;;;;;;4823195;29;20050;-68
2022/07/17 12:01:17;;;;;;;;;;;;;;;;;;4838512;29;20050;-68
2022/07/17 12:03:58;;;;;;;1.48;0.60;;;;;;;;;;4838135;29;19925;-70
2022/07/17 12:06:28;;;;;;;4.45;1.98;;;;;;;;;;4838218;29;20058;-68
2022/07/17 12:08:59;;;;;;;6.95;2.70;;;;;;;;;;4838300;29;20467;-69
2022/07/17 12:11:30;;;;;;;2.63;1.35;;;;;;;;;;4837946;29;20070;-69
2022/07/17 12:14:06;;;;;;;1.52;0.70;;;;;;;;;;4807906;29;20499;-69
2022/07/17 12:16:37;;;;;;;1.45;0.80;;;;;;;;;;4823551;29;20064;-69
2022/07/17 12:19:18;;;;;;;1.48;0.73;;;;;;;;;;4837900;29;20050;-68
2022/07/17 12:21:57;;;;;;;1.05;0.50;;;;;;;;;;4856748;29;20495;-68
2022/07/17 12:24:28;;;;;;;;;;;;;;;;;;4857092;29;20062;-69
2022/07/17 12:27:00;;;;;;;1.33;0.68;;;;;;;;;;4856531;29;19924;-68
2022/07/17 12:29:31;;;;;;;2.03;0.95;;;;;;;;;;4856451;29;20102;-69
2022/07/17 12:32:04;;;;;;;1.45;0.80;;;;;;;;;;4856355;29;20057;-69
2022/07/17 12:34:37;;;;;;;0.88;0.40;;;;;;;;;;4837963;29;20061;-68
2022/07/17 12:37:07;;;;;;;0.80;0.45;;;;;;;;;;4853852;29;20506;-68
2022/07/17 12:39:37;;;;;;;1.17;0.55;;;;;;;;;;4856570;29;20053;-68
2022/07/17 12:42:09;;;;;;;66.90;20.70;;;;;;;;;;4856561;29;20070;-68
2022/07/17 12:44:41;;;;;;;3.22;1.30;;;;;;;;;;4860256;29;20060;-67
2022/07/17 12:47:12;;;;;;;1.95;0.80;;;;;;;;;;4860137;29;20202;-67
2022/07/17 12:49:42;;;;;;;2.72;1.20;;;;;;;;;;4796094;29;20152;-67
2022/07/17 12:52:13;;;;;;;1.02;0.50;;;;;;;;;;4775314;29;20050;-69
2022/07/17 12:54:44;;;;;;;1.35;0.40;;;;;;;;;;4805003;29;20524;-69
2022/07/17 12:57:15;;;;;;;1.00;0.43;;;;;;;;;;4804941;29;20070;-69
2022/07/17 12:59:45;;;;;;;2.05;0.90;;;;;;;;;;4805103;29;20063;-69
2022/07/17 13:02:16;;;;;;;1.10;0.57;;;;;;;;;;4822952;29;20676;-68
2022/07/17 13:04:46;;;;;;;8.40;2.80;;;;;;;;;;4792704;29;20077;-68
2022/07/17 13:07:17;;;;;;;6.93;2.83;;;;;;;;;;4794268;29;20055;-69
2022/07/17 13:09:48;;;;;;;2.58;1.08;;;;;;;;;;4786595;29;20055;-68
2022/07/17 13:12:18;;;;;;;4.13;2.08;;;;;;;;;;4806629;29;20069;-69
2022/07/17 13:14:49;;;;;;;9.00;3.83;;;;;;;;;;4823041;29;20066;-69
2022/07/17 13:17:19;;;;;;;6.25;3.08;;;;;;;;;;4792826;29;20062;-68
2022/07/17 13:19:50;;;;;;;3.83;1.73;;;;;;;;;;4822625;29;20069;-69
2022/07/17 13:22:20;;;;;;;5.65;2.92;;;;;;;;;;4804585;29;20065;-69
2022/07/17 13:24:50;;;;;;;1.50;1.13;;;;;;;;;;4774526;29;20188;-68
2022/07/17 13:27:20;;;;;;;1.83;0.70;;;;;;;;;;4777238;30;20060;-69
2022/07/17 13:29:50;;;;;;;6.03;3.22;;;;;;;;;;4777510;30;20078;-69
2022/07/17 13:32:21;;;;;;;1.70;0.75;;;;;;;;;;4741984;30;20055;-69
2022/07/17 13:34:52;;;;;;;2.60;0.75;;;;;;;;;;4786322;30;20696;-68
2022/07/17 13:37:22;;;;;;;3.10;1.55;;;;;;;;;;4786719;30;20051;-69
2022/07/17 13:39:52;;;;;;;1.63;0.80;;;;;;;;;;4786403;30;20063;-69
2022/07/17 13:42:23;;;;;;;2.42;1.17;;;;;;;;;;4786395;30;20400;-69
2022/07/17 13:44:53;;;;;;;7.22;2.35;;;;;;;;;;4773558;29;20495;-69
2022/07/17 13:47:24;;;;;;;3.95;1.45;;;;;;;;;;4822467;29;20200;-68
2022/07/17 13:49:55;;;;;;;1.30;0.82;;;;;;;;;;4807562;29;20058;-69
2022/07/17 13:52:25;;;;;;;7.25;3.80;;;;;;;;;;4810619;29;20050;-68
2022/07/17 13:54:56;;;;;;;7.32;3.03;;;;;;;;;;4839643;29;20069;-69
2022/07/17 13:57:47;;;;;;;3.55;1.42;;;;;;;;;;4840602;29;20511;-69
2022/07/17 14:00:17;;;;;;;2.05;0.90;;;;;;;;;;4851791;29;20053;-68
2022/07/17 14:02:47;;;;;;;53.90;25.50;;;;;;;;;;4859063;29;20120;-69
2022/07/17 14:05:18;;;;;;;1.65;0.75;;;;;;;;;;4858732;29;20065;-68
2022/07/17 14:07:49;;;;;;;2.58;1.30;;;;;;;;;;4858609;29;20510;-69
2022/07/17 14:10:19;;;;;;;7.28;4.25;;;;;;;;;;4868405;29;20056;-69
2022/07/17 14:12:50;;;;;;;2.58;1.25;;;;;;;;;;4896028;29;20090;-68
2022/07/17 14:15:20;;;;;;;1.23;0.60;;;;;;;;;;4896001;29;20509;-69
2022/07/17 14:17:51;;;;;;;1.83;0.70;;;;;;;;;;4895871;29;20060;-68
2022/07/17 14:20:22;;;;;;;1.50;0.70;;;;;;;;;;4895331;29;20059;-69
2022/07/17 14:22:52;;;;;;;2.28;1.08;;;;;;;;;;4864615;29;20063;-68
2022/07/17 14:25:24;;;;;;;3.55;1.50;;;;;;;;;;4895687;29;20072;-69
2022/07/17 14:27:56;;;;;;;1.85;0.90;;;;;;;;;;4895855;29;20088;-69
2022/07/17 14:30:27;;;;;;;0.95;0.52;;;;;;;;;;4867976;29;20076;-68
2022/07/17 14:32:57;;;;;;;7.45;2.45;;;;;;;;;;4876977;29;20049;-68
2022/07/17 14:35:28;;;;;;;3.65;2.00;;;;;;;;;;4877050;29;20072;-69
2022/07/17 14:37:59;;;;;;;1.35;0.65;;;;;;;;;;4870925;29;20161;-69
2022/07/17 14:40:30;;;;;;;2.55;1.20;;;;;;;;;;4876358;29;20512;-68
2022/07/17 14:43:00;;;;;;;5.20;2.65;;;;;;;;;;4858227;29;20061;-68
2022/07/17 14:45:30;;;;;;;2.47;1.30;;;;;;;;;;4858152;29;20068;-69
2022/07/17 14:48:01;;;;;;;1.45;0.70;;;;;;;;;;4858066;29;20688;-68
2022/07/17 14:50:31;;;;;;;2.88;1.20;;;;;;;;;;4858078;29;20068;-68
2022/07/17 14:53:01;;;;;;;1.58;0.85;;;;;;;;;;4857982;29;20061;-68
2022/07/17 14:55:31;;;;;;;2.30;0.95;;;;;;;;;;4857805;29;20065;-68
2022/07/17 14:58:02;;;;;;;12.35;6.35;;;;;;;;;;4857772;29;20061;-68
2022/07/17 15:00:32;;;;;;;13.25;5.72;;;;;;;;;;4821026;29;20471;-68
2022/07/17 15:03:03;;;;;;;6.28;3.30;;;;;;;;;;4821305;29;20063;-69
2022/07/17 15:05:34;;;;;;;4.15;1.95;;;;;;;;;;4821024;29;20086;-68
2022/07/17 15:08:04;;;;;;;29.10;11.20;;;;;;;;;;4821106;29;20055;-68
2022/07/17 15:10:35;;;;;;;6.32;2.53;;;;;;;;;;4820860;29;20455;-69
2022/07/17 15:13:05;;;;;;;9.48;4.85;;;;;;;;;;4776211;29;20066;-68